Ely, Minnesota
Current Conditions -  °F | °C
As of 6:53 AM on Monday 20 Oct 2014 (Local Time) from KELO Reporting Station
Overcast Overcast  
Wind Chill: 45°   Ceiling: 1800
Heat Index: 45°   Visibility: 10mi
Dew Point: 39°   Wind: 3mph
Humidity: 81%   Direction: 330°NNW
Pressure: 29.9"   Gusts: NA
Location:  47.9°N, 91.87°W
Report Text: KELO 201153Z AUTO 33003KT 10SM OVC018 07/04 A2990 RMK AO2
Loading
Personal Weather Stations






























Interactive Weather Map
Tropical Storm Tracking
New forecast layout! Learn more

10-Day Weather Forecast

Advertisements
Track Severe Weather on mobile